Time;durP1;ratioP1;P1;durP2;ratioP2;P2;SDS_P1;SDS_P2;PMS_P1;PMS_P2;Temp;Humidity;BMP_temperature;BMP_pressure;BME280_temperature;BME280_humidity;BME280_pressure;Samples;Min_cycle;Max_cycle;Signal;HPM_P1;HPM_P2
2023/09/03 00:00:47;;;;;;;24.13;8.30;;;;;;;;;;5008879;28;20069;-58
2023/09/03 00:03:40;;;;;;;30.17;7.55;;;;;;;;;;5010646;28;20100;-58
2023/09/03 00:06:28;;;;;;;22.20;7.78;;;;;;;;;;5008273;28;20065;-53
2023/09/03 00:09:22;;;;;;;32.35;8.98;;;;;;;;;;5006805;28;20050;-54
2023/09/03 00:12:11;;;;;;;27.08;7.60;;;;;;;;;;5008981;28;20073;-53
2023/09/03 00:15:05;;;;;;;48.78;9.88;;;;;;;;;;5012911;28;20037;-50
2023/09/03 00:17:52;;;;;;;33.30;9.18;;;;;;;;;;5013272;28;20058;-67
2023/09/03 00:20:57;;;;;;;37.88;8.60;;;;;;;;;;5011400;28;20056;-59
2023/09/03 00:23:44;;;;;;;35.78;9.48;;;;;;;;;;5008563;28;20127;-59
2023/09/03 00:26:38;;;;;;;27.52;8.75;;;;;;;;;;5009216;28;20421;-60
2023/09/03 00:29:25;;;;;;;28.88;8.95;;;;;;;;;;5008869;28;20045;-59
2023/09/03 00:32:18;;;;;;;41.80;10.35;;;;;;;;;;5008171;28;20123;-59
2023/09/03 00:35:06;;;;;;;36.33;9.95;;;;;;;;;;5006840;28;20872;-65
2023/09/03 00:37:59;;;;;;;41.72;10.13;;;;;;;;;;5008940;28;20054;-61
2023/09/03 00:40:47;;;;;;;45.63;9.98;;;;;;;;;;5006425;28;20062;-62
2023/09/03 00:43:41;;;;;;;42.67;10.50;;;;;;;;;;5010803;28;20053;-61
2023/09/03 00:46:29;;;;;;;33.22;9.13;;;;;;;;;;5010075;28;20049;-59
2023/09/03 00:49:24;;;;;;;36.03;8.48;;;;;;;;;;5008324;28;20552;-50
2023/09/03 00:52:19;;;;;;;29.42;8.77;;;;;;;;;;5006326;28;20061;-48
2023/09/03 00:55:11;;;;;;;42.95;10.05;;;;;;;;;;5005127;28;20046;-47
2023/09/03 00:57:59;;;;;;;46.45;11.70;;;;;;;;;;5006025;28;20057;-48
2023/09/03 01:00:52;;;;;;;37.30;11.07;;;;;;;;;;5001862;28;20058;-51
2023/09/03 01:03:42;;;;;;;39.88;9.63;;;;;;;;;;5004473;28;20053;-58
2023/09/03 01:06:34;;;;;;;26.15;8.98;;;;;;;;;;5004137;28;20054;-57
2023/09/03 01:09:21;;;;;;;39.60;9.85;;;;;;;;;;5004230;28;20574;-56
2023/09/03 01:12:24;;;;;;;35.78;9.10;;;;;;;;;;5006449;28;20054;-57
2023/09/03 01:15:15;;;;;;;39.03;10.13;;;;;;;;;;5007882;28;20061;-67
2023/09/03 01:18:15;;;;;;;32.75;9.60;;;;;;;;;;5005587;28;20045;-61
2023/09/03 01:21:11;;;;;;;61.90;12.48;;;;;;;;;;5006100;28;20058;-62
2023/09/03 01:24:07;;;;;;;54.80;12.63;;;;;;;;;;5004767;28;20545;-62
2023/09/03 01:27:05;;;;;;;67.07;13.43;;;;;;;;;;5007137;28;20054;-62
2023/09/03 01:29:59;;;;;;;46.85;11.00;;;;;;;;;;5011074;28;20593;-63
2023/09/03 01:32:48;;;;;;;58.80;12.05;;;;;;;;;;5002437;28;20465;-52
2023/09/03 01:35:43;;;;;;;39.75;10.52;;;;;;;;;;5004461;28;20053;-52
2023/09/03 01:38:31;;;;;;;120.10;12.40;;;;;;;;;;5001246;28;20069;-49
2023/09/03 01:41:24;;;;;;;77.10;11.40;;;;;;;;;;5004285;28;20057;-50
2023/09/03 01:44:12;;;;;;;62.35;11.93;;;;;;;;;;5005684;28;20041;-61
2023/09/03 01:47:28;;;;;;;59.33;12.23;;;;;;;;;;5002607;28;20133;-51
2023/09/03 01:50:24;;;;;;;57.60;12.73;;;;;;;;;;5003194;28;20064;-55
2023/09/03 01:53:36;;;;;;;46.55;10.77;;;;;;;;;;5002568;28;20317;-53
2023/09/03 01:56:25;;;;;;;53.97;12.15;;;;;;;;;;5005209;28;20132;-55
2023/09/03 01:59:24;;;;;;;10.05;3.33;;;;;;;;;;5001708;28;20116;-50
2023/09/03 02:02:13;;;;;;;35.03;9.55;;;;;;;;;;5007703;28;20053;-61
2023/09/03 02:05:07;;;;;;;574.50;33.17;;;;;;;;;;5010204;28;20049;-60
2023/09/03 02:08:01;;;;;;;186.00;13.80;;;;;;;;;;5003394;28;20080;-60
2023/09/03 02:10:48;;;;;;;62.80;9.48;;;;;;;;;;5003718;28;20064;-58
2023/09/03 02:13:41;;;;;;;27.10;8.05;;;;;;;;;;5005630;28;20124;-67
2023/09/03 02:16:35;;;;;;;20.35;7.25;;;;;;;;;;5001427;28;20057;-67
2023/09/03 02:19:30;;;;;;;34.70;7.68;;;;;;;;;;4983397;28;20978;-67
2023/09/03 02:22:17;;;;;;;27.67;7.43;;;;;;;;;;5006207;28;20077;-67
2023/09/03 02:25:12;;;;;;;23.25;7.10;;;;;;;;;;5003447;28;20128;-67
2023/09/03 02:28:00;;;;;;;58.40;8.60;;;;;;;;;;5002314;28;20058;-67
2023/09/03 02:30:54;;;;;;;61.78;7.47;;;;;;;;;;5004481;28;20349;-60
2023/09/03 02:33:41;;;;;;;77.18;6.57;;;;;;;;;;5006142;28;20073;-60
2023/09/03 02:36:35;;;;;;;51.35;7.55;;;;;;;;;;5003457;28;20065;-60
2023/09/03 02:39:28;;;;;;;41.88;8.95;;;;;;;;;;5002879;28;20461;-60
2023/09/03 02:42:16;;;;;;;36.75;10.55;;;;;;;;;;4994336;28;20171;-52
2023/09/03 02:45:10;;;;;;;31.95;8.95;;;;;;;;;;4992951;28;20579;-53
2023/09/03 02:47:57;;;;;;;28.27;8.50;;;;;;;;;;4983117;28;20057;-54
2023/09/03 02:50:51;;;;;;;30.10;8.05;;;;;;;;;;5000131;28;20057;-52
2023/09/03 02:53:53;;;;;;;27.98;7.97;;;;;;;;;;5004733;28;20053;-51
2023/09/03 02:56:39;;;;;;;44.45;10.02;;;;;;;;;;5004724;28;20054;-54
2023/09/03 02:59:33;;;;;;;48.78;10.90;;;;;;;;;;4998420;28;20128;-60
2023/09/03 03:02:20;;;;;;;54.45;9.63;;;;;;;;;;5008274;28;20083;-68
2023/09/03 03:05:14;;;;;;;36.25;8.05;;;;;;;;;;5006689;28;20052;-68
2023/09/03 03:08:02;;;;;;;24.58;8.23;;;;;;;;;;5002514;28;20149;-68
2023/09/03 03:11:08;;;;;;;35.65;8.30;;;;;;;;;;5003666;28;21068;-68
2023/09/03 03:13:55;;;;;;;19.73;6.22;;;;;;;;;;5006646;28;20049;-68
2023/09/03 03:16:48;;;;;;;20.85;5.78;;;;;;;;;;4989306;28;20046;-57
2023/09/03 03:19:36;;;;;;;21.50;5.10;;;;;;;;;;4982250;28;20469;-57
2023/09/03 03:22:30;;;;;;;35.38;8.55;;;;;;;;;;4994572;28;20104;-57
2023/09/03 03:25:17;;;;;;;30.30;7.93;;;;;;;;;;4997390;28;20053;-57
2023/09/03 03:28:11;;;;;;;29.48;8.93;;;;;;;;;;5001135;28;20050;-53
2023/09/03 03:31:11;;;;;;;36.72;8.90;;;;;;;;;;5000470;28;20466;-53
2023/09/03 03:34:05;;;;;;;32.28;8.60;;;;;;;;;;5001219;28;20064;-49
2023/09/03 03:36:53;;;;;;;23.55;7.07;;;;;;;;;;4999372;28;20057;-49
2023/09/03 03:39:50;;;;;;;24.00;7.72;;;;;;;;;;5001037;28;20104;-51
2023/09/03 03:42:37;;;;;;;37.20;9.13;;;;;;;;;;5004286;28;20501;-52
2023/09/03 03:45:33;;;;;;;24.02;8.70;;;;;;;;;;5003462;28;20054;-65
2023/09/03 03:48:27;;;;;;;33.45;8.77;;;;;;;;;;5000725;28;20081;-62
2023/09/03 03:51:14;;;;;;;12.23;4.80;;;;;;;;;;4997357;28;20513;-63
2023/09/03 03:54:14;;;;;;;22.10;5.43;;;;;;;;;;4990084;28;20054;-63
2023/09/03 03:57:02;;;;;;;21.50;7.90;;;;;;;;;;4986512;28;20051;-58
2023/09/03 03:59:36;;;;;;;19.73;7.13;;;;;;;;;;5000260;28;20057;-59
2023/09/03 04:02:03;;;;;;;;;;;;;;;;;;5004203;28;20149;-57
2023/09/03 04:04:57;;;;;;;9.77;3.83;;;;;;;;;;5002460;28;19984;-58
2023/09/03 04:07:50;;;;;;;17.65;5.38;;;;;;;;;;5002889;28;20774;-57
2023/09/03 04:10:38;;;;;;;22.75;5.85;;;;;;;;;;4989784;28;20106;-58
2023/09/03 04:13:32;;;;;;;14.68;4.00;;;;;;;;;;5002872;28;20446;-58
2023/09/03 04:16:21;;;;;;;6.47;2.40;;;;;;;;;;5004622;28;20121;-58
2023/09/03 04:19:14;;;;;;;15.68;4.50;;;;;;;;;;4987388;28;20165;-57
2023/09/03 04:22:02;;;;;;;12.40;3.20;;;;;;;;;;4993194;28;20050;-57
2023/09/03 04:24:56;;;;;;;10.48;3.40;;;;;;;;;;5006924;28;20104;-57
2023/09/03 04:27:43;;;;;;;9.63;3.55;;;;;;;;;;5005529;28;20545;-63
2023/09/03 04:30:37;;;;;;;20.15;4.95;;;;;;;;;;5004632;28;20100;-63
2023/09/03 04:33:24;;;;;;;14.90;5.50;;;;;;;;;;5006721;28;20054;-63
2023/09/03 04:36:19;;;;;;;25.58;6.63;;;;;;;;;;5005616;28;20144;-62
2023/09/03 04:39:08;;;;;;;39.90;8.35;;;;;;;;;;5003397;28;20490;-63
2023/09/03 04:41:59;;;;;;;48.00;11.23;;;;;;;;;;5000759;28;20185;-59
2023/09/03 04:44:47;;;;;;;31.45;8.65;;;;;;;;;;5009087;28;20105;-60
2023/09/03 04:47:40;;;;;;;46.05;9.63;;;;;;;;;;5001876;28;20057;-60
2023/09/03 04:50:28;;;;;;;29.75;7.70;;;;;;;;;;4998268;28;20057;-60
2023/09/03 04:53:28;;;;;;;20.75;5.45;;;;;;;;;;5007011;28;20058;-55
2023/09/03 04:56:15;;;;;;;32.22;6.60;;;;;;;;;;5007665;28;20053;-63
2023/09/03 04:59:10;;;;;;;42.00;9.98;;;;;;;;;;5003219;28;20502;-63
2023/09/03 05:02:04;;;;;;;37.63;8.73;;;;;;;;;;5001084;28;20143;-63
2023/09/03 05:05:01;;;;;;;34.00;8.48;;;;;;;;;;4999039;28;20058;-63
2023/09/03 05:07:48;;;;;;;27.23;7.75;;;;;;;;;;4996876;28;20058;-62
2023/09/03 05:10:42;;;;;;;33.65;8.88;;;;;;;;;;4999383;28;20050;-60
2023/09/03 05:13:29;;;;;;;32.67;8.52;;;;;;;;;;5005163;28;20073;-60
2023/09/03 05:16:23;;;;;;;45.08;10.25;;;;;;;;;;5000519;28;20140;-60
2023/09/03 05:19:14;;;;;;;41.03;9.10;;;;;;;;;;5003953;28;20054;-61
2023/09/03 05:22:03;;;;;;;31.67;8.45;;;;;;;;;;5003564;28;20049;-52
2023/09/03 05:24:51;;;;;;;21.83;6.20;;;;;;;;;;5005109;28;20100;-53
2023/09/03 05:27:45;;;;;;;32.30;8.40;;;;;;;;;;4999954;28;20056;-51
2023/09/03 05:30:33;;;;;;;39.60;8.90;;;;;;;;;;5004358;28;20438;-53
2023/09/03 05:33:25;;;;;;;35.63;9.90;;;;;;;;;;5000864;28;20108;-51
2023/09/03 05:36:20;;;;;;;32.33;8.65;;;;;;;;;;4999194;28;20062;-53
2023/09/03 05:39:07;;;;;;;25.27;8.48;;;;;;;;;;5001157;28;21408;-60
2023/09/03 05:42:01;;;;;;;31.60;9.60;;;;;;;;;;5002446;28;20109;-60
2023/09/03 05:44:48;;;;;;;36.80;8.43;;;;;;;;;;5005226;28;20116;-60
2023/09/03 05:47:42;;;;;;;40.45;9.15;;;;;;;;;;4999623;28;20046;-60
2023/09/03 05:50:32;;;;;;;40.58;9.25;;;;;;;;;;5004407;28;20153;-61
2023/09/03 05:53:32;;;;;;;33.75;9.23;;;;;;;;;;5016961;28;20057;-63
2023/09/03 05:56:26;;;;;;;42.05;9.68;;;;;;;;;;5023836;28;20110;-62
2023/09/03 05:59:20;;;;;;;42.55;10.50;;;;;;;;;;5025525;28;20064;-63
2023/09/03 06:02:07;;;;;;;51.00;10.38;;;;;;;;;;5026365;28;20057;-62
2023/09/03 06:05:02;;;;;;;24.30;7.22;;;;;;;;;;5024966;28;20116;-63
2023/09/03 06:07:48;;;;;;;40.42;9.85;;;;;;;;;;5025216;28;20599;-60
2023/09/03 06:10:42;;;;;;;40.28;9.27;;;;;;;;;;5024274;28;20109;-60
2023/09/03 06:13:29;;;;;;;42.80;9.43;;;;;;;;;;5021049;28;20057;-60
2023/09/03 06:16:23;;;;;;;41.03;9.93;;;;;;;;;;5025193;28;20524;-66
2023/09/03 06:19:10;;;;;;;28.88;8.70;;;;;;;;;;5024678;28;20041;-60
2023/09/03 06:22:04;;;;;;;33.03;7.93;;;;;;;;;;5030450;28;20061;-58
2023/09/03 06:24:51;;;;;;;32.35;8.60;;;;;;;;;;5030344;28;20472;-58
2023/09/03 06:27:45;;;;;;;37.45;9.32;;;;;;;;;;5025476;28;20044;-58
2023/09/03 06:30:32;;;;;;;33.72;7.60;;;;;;;;;;5018746;28;20088;-58
2023/09/03 06:33:26;;;;;;;39.88;8.48;;;;;;;;;;5021908;28;20061;-58
2023/09/03 06:36:15;;;;;;;32.33;8.38;;;;;;;;;;5021677;28;20501;-65
2023/09/03 06:39:11;;;;;;;36.17;9.45;;;;;;;;;;5018925;28;20045;-66
2023/09/03 06:41:58;;;;;;;25.20;6.45;;;;;;;;;;5023672;28;20057;-66
2023/09/03 06:44:52;;;;;;;32.95;8.07;;;;;;;;;;5008989;28;20103;-60
2023/09/03 06:47:39;;;;;;;37.70;8.30;;;;;;;;;;5024880;28;20053;-52
2023/09/03 06:50:33;;;;;;;29.80;8.30;;;;;;;;;;5009017;28;20045;-61
2023/09/03 06:53:26;;;;;;;32.42;7.90;;;;;;;;;;4999166;28;20058;-60
2023/09/03 06:56:10;;;;;;;32.33;7.82;;;;;;;;;;4995260;28;20053;-60
2023/09/03 06:58:57;;;;;;;28.23;7.63;;;;;;;;;;4998066;28;20100;-60
2023/09/03 07:02:01;;;;;;;34.63;7.90;;;;;;;;;;5002586;28;20042;-60
2023/09/03 07:04:59;;;;;;;33.35;7.85;;;;;;;;;;4985180;28;20132;-62
2023/09/03 07:07:42;;;;;;;33.30;7.53;;;;;;;;;;4984723;28;22095;-50
2023/09/03 07:10:36;;;;;;;30.48;7.07;;;;;;;;;;4989966;28;20455;-50
2023/09/03 07:13:23;;;;;;;22.08;6.70;;;;;;;;;;4994222;28;20506;-50
2023/09/03 07:15:57;;;;;;;32.72;6.32;;;;;;;;;;4990069;28;20066;-53
2023/09/03 07:18:24;;;;;;;31.58;7.53;;;;;;;;;;4985789;28;20255;-50
2023/09/03 07:21:02;;;;;;;18.58;5.35;;;;;;;;;;4982412;28;20164;-49
2023/09/03 07:23:37;;;;;;;24.00;6.10;;;;;;;;;;4981249;28;20066;-58
2023/09/03 07:26:31;;;;;;;22.42;5.50;;;;;;;;;;4984992;28;20050;-48
2023/09/03 07:29:18;;;;;;;22.63;5.85;;;;;;;;;;4978522;28;20054;-48
2023/09/03 07:31:53;;;;;;;24.25;6.18;;;;;;;;;;4988668;28;20104;-48
2023/09/03 07:34:43;;;;;;;19.77;5.25;;;;;;;;;;4984118;28;20043;-51
2023/09/03 07:37:35;;;;;;;20.65;4.97;;;;;;;;;;4988923;28;20057;-51
2023/09/03 07:40:24;;;;;;;15.90;4.60;;;;;;;;;;5000393;28;20576;-60
2023/09/03 07:43:17;;;;;;;20.52;5.00;;;;;;;;;;5003108;28;20589;-60
2023/09/03 07:46:05;;;;;;;21.73;4.78;;;;;;;;;;5005320;28;20160;-60
2023/09/03 07:48:39;;;;;;;17.88;5.25;;;;;;;;;;4998152;28;20050;-60
2023/09/03 07:51:26;;;;;;;22.85;5.43;;;;;;;;;;5007766;28;20061;-60
2023/09/03 07:54:26;;;;;;;19.38;4.45;;;;;;;;;;5012268;28;20053;-61
2023/09/03 07:57:14;;;;;;;18.65;4.68;;;;;;;;;;5025914;28;20108;-60
2023/09/03 08:00:08;;;;;;;16.08;3.95;;;;;;;;;;5030583;28;20101;-59
2023/09/03 08:02:55;;;;;;;16.13;4.35;;;;;;;;;;5021002;28;20053;-59
2023/09/03 08:05:49;;;;;;;13.88;4.13;;;;;;;;;;5028583;28;20139;-59
2023/09/03 08:08:43;;;;;;;12.68;3.78;;;;;;;;;;5027456;28;20129;-60
2023/09/03 08:11:31;;;;;;;12.80;4.27;;;;;;;;;;5025899;28;20056;-61
2023/09/03 08:14:25;;;;;;;11.82;3.72;;;;;;;;;;5008838;28;20057;-61
2023/09/03 08:17:21;;;;;;;15.15;4.15;;;;;;;;;;5017574;28;20424;-61
2023/09/03 08:20:14;;;;;;;16.60;4.15;;;;;;;;;;5027220;28;20488;-61
2023/09/03 08:23:01;;;;;;;15.88;4.03;;;;;;;;;;5027756;28;20073;-60
2023/09/03 08:25:55;;;;;;;16.52;3.97;;;;;;;;;;5023627;28;20053;-61
2023/09/03 08:28:22;;;;;;;18.48;4.45;;;;;;;;;;5026595;28;20107;-60
2023/09/03 08:30:56;;;;;;;18.33;5.07;;;;;;;;;;5025406;28;20116;-52
2023/09/03 08:33:33;;;;;;;17.95;4.60;;;;;;;;;;5022266;28;20061;-52
2023/09/03 08:36:07;;;;;;;15.32;3.78;;;;;;;;;;5031081;28;20053;-52
2023/09/03 08:38:40;;;;;;;10.32;4.07;;;;;;;;;;5025799;28;20045;-49
2023/09/03 08:41:21;;;;;;;17.27;4.43;;;;;;;;;;5029120;28;20107;-53
2023/09/03 08:43:50;;;;;;;14.57;4.20;;;;;;;;;;5025984;28;20460;-49
2023/09/03 08:46:25;;;;;;;11.07;3.63;;;;;;;;;;5029882;28;20132;-52
2023/09/03 08:49:00;;;;;;;14.07;3.92;;;;;;;;;;5024458;28;20080;-63
2023/09/03 08:51:34;;;;;;;17.08;4.07;;;;;;;;;;5026020;28;20057;-63
2023/09/03 08:54:07;;;;;;;11.07;3.65;;;;;;;;;;5025604;28;20128;-63
2023/09/03 08:56:42;;;;;;;13.15;4.57;;;;;;;;;;5021958;28;20057;-63
2023/09/03 08:59:30;;;;;;;15.80;4.05;;;;;;;;;;5009994;28;20061;-63
2023/09/03 09:02:25;;;;;;;13.35;4.60;;;;;;;;;;5021939;28;20456;-63
2023/09/03 09:05:19;;;;;;;11.15;4.10;;;;;;;;;;5019559;28;20061;-63
2023/09/03 09:08:06;;;;;;;12.07;3.55;;;;;;;;;;5012647;28;20116;-60
2023/09/03 09:11:03;;;;;;;7.80;3.90;;;;;;;;;;5010617;28;20054;-60
2023/09/03 09:13:57;;;;;;;14.00;3.83;;;;;;;;;;5011720;28;20085;-60
2023/09/03 09:16:52;;;;;;;14.93;4.60;;;;;;;;;;5013522;28;20140;-60
2023/09/03 09:19:39;;;;;;;12.63;4.28;;;;;;;;;;5012440;28;20044;-59
2023/09/03 09:22:45;;;;;;;15.60;4.47;;;;;;;;;;5018495;28;20045;-59
2023/09/03 09:25:39;;;;;;;18.35;4.40;;;;;;;;;;5016714;28;20800;-63
2023/09/03 09:28:10;;;;;;;11.43;3.88;;;;;;;;;;5025594;28;20045;-63
2023/09/03 09:30:51;;;;;;;9.82;3.50;;;;;;;;;;5023633;28;20406;-63
2023/09/03 09:33:25;;;;;;;9.18;4.07;;;;;;;;;;5019369;28;20525;-63
2023/09/03 09:36:13;;;;;;;10.27;3.42;;;;;;;;;;5016344;28;20107;-62
2023/09/03 09:39:08;;;;;;;6.70;3.40;;;;;;;;;;5024953;28;20049;-61
2023/09/03 09:42:07;;;;;;;4.57;3.03;;;;;;;;;;5018118;28;20045;-59
2023/09/03 09:45:00;;;;;;;7.65;3.35;;;;;;;;;;5022865;28;20049;-58
2023/09/03 09:47:49;;;;;;;10.23;3.67;;;;;;;;;;5015628;28;20164;-58
2023/09/03 09:50:43;;;;;;;9.27;3.30;;;;;;;;;;5020482;28;20094;-58
2023/09/03 09:53:36;;;;;;;6.13;2.80;;;;;;;;;;5016765;28;20078;-57
2023/09/03 09:56:37;;;;;;;6.18;3.25;;;;;;;;;;5008132;28;20509;-58
2023/09/03 09:59:28;;;;;;;13.10;3.72;;;;;;;;;;4991147;28;20069;-60
2023/09/03 10:02:22;;;;;;;8.35;3.47;;;;;;;;;;5005875;28;20077;-58
2023/09/03 10:05:10;;;;;;;6.57;3.10;;;;;;;;;;5003740;28;20045;-58
2023/09/03 10:08:04;;;;;;;8.48;3.90;;;;;;;;;;5008839;28;20057;-58
2023/09/03 10:10:51;;;;;;;8.55;3.40;;;;;;;;;;5005544;28;20104;-59
2023/09/03 10:13:45;;;;;;;8.77;3.80;;;;;;;;;;4999702;28;20156;-58
2023/09/03 10:16:32;;;;;;;10.70;3.30;;;;;;;;;;5009060;28;20058;-58
2023/09/03 10:19:31;;;;;;;9.90;3.42;;;;;;;;;;5005662;28;20140;-59
2023/09/03 10:22:19;;;;;;;13.35;3.92;;;;;;;;;;5004707;28;20589;-57
2023/09/03 10:25:14;;;;;;;12.32;3.92;;;;;;;;;;5006662;28;20128;-55
2023/09/03 10:28:04;;;;;;;7.18;3.55;;;;;;;;;;5006846;28;20049;-57
2023/09/03 10:30:58;;;;;;;7.53;3.53;;;;;;;;;;5007690;28;20394;-57
2023/09/03 10:33:45;;;;;;;6.43;3.70;;;;;;;;;;5001915;28;20042;-56
2023/09/03 10:36:39;;;;;;;8.75;3.60;;;;;;;;;;5010224;28;20057;-60
2023/09/03 10:39:26;;;;;;;9.65;3.58;;;;;;;;;;5004729;28;20057;-60
2023/09/03 10:42:23;;;;;;;5.05;3.55;;;;;;;;;;5007379;28;20065;-61
2023/09/03 10:45:13;;;;;;;6.90;3.00;;;;;;;;;;5002753;28;20416;-60
2023/09/03 10:48:06;;;;;;;6.43;3.10;;;;;;;;;;4998439;28;20049;-59
2023/09/03 10:51:00;;;;;;;9.50;3.60;;;;;;;;;;5008344;28;20108;-60
2023/09/03 10:53:47;;;;;;;12.95;3.40;;;;;;;;;;5004451;28;20532;-59
2023/09/03 10:56:59;;;;;;;6.90;3.30;;;;;;;;;;4996729;28;20054;-60
2023/09/03 11:00:05;;;;;;;6.05;3.03;;;;;;;;;;5001590;28;20481;-60
2023/09/03 11:02:49;;;;;;;4.47;2.72;;;;;;;;;;5003317;28;20686;-62
2023/09/03 11:05:40;;;;;;;7.40;3.13;;;;;;;;;;4997365;28;20046;-61
2023/09/03 11:08:31;;;;;;;9.05;3.30;;;;;;;;;;4999619;28;20148;-59
2023/09/03 11:11:24;;;;;;;6.20;3.28;;;;;;;;;;4998637;28;20117;-61
2023/09/03 11:14:13;;;;;;;5.68;3.30;;;;;;;;;;5001868;28;20077;-60
2023/09/03 11:17:09;;;;;;;10.48;3.25;;;;;;;;;;5004069;28;20061;-59
2023/09/03 11:19:56;;;;;;;4.65;3.08;;;;;;;;;;5001772;28;20046;-60
2023/09/03 11:22:36;;;;;;;5.30;3.33;;;;;;;;;;5004299;28;20525;-60
2023/09/03 11:25:04;;;;;;;6.13;3.28;;;;;;;;;;5001814;28;20061;-60
2023/09/03 11:27:58;;;;;;;6.00;3.30;;;;;;;;;;5008256;28;20588;-60
2023/09/03 11:30:46;;;;;;;5.40;3.27;;;;;;;;;;4999882;28;20050;-60
2023/09/03 11:33:40;;;;;;;8.98;3.30;;;;;;;;;;5006042;28;20054;-54
2023/09/03 11:36:27;;;;;;;5.15;3.22;;;;;;;;;;5002488;28;20054;-59
2023/09/03 11:39:22;;;;;;;3.80;2.80;;;;;;;;;;5007555;28;20465;-59
2023/09/03 11:42:13;;;;;;;4.88;3.08;;;;;;;;;;5005100;28;20557;-58
2023/09/03 11:45:05;;;;;;;4.65;2.85;;;;;;;;;;5005632;28;20058;-59
2023/09/03 11:47:53;;;;;;;3.80;2.80;;;;;;;;;;5005950;28;20050;-58
2023/09/03 11:50:50;;;;;;;5.20;2.90;;;;;;;;;;5005288;28;20049;-60
2023/09/03 11:53:43;;;;;;;4.85;2.65;;;;;;;;;;5007902;28;20191;-59
2023/09/03 11:56:43;;;;;;;3.65;2.45;;;;;;;;;;5004024;28;20060;-60
2023/09/03 11:59:31;;;;;;;6.25;2.67;;;;;;;;;;5002654;28;20058;-59
2023/09/03 12:02:25;;;;;;;4.97;2.63;;;;;;;;;;5004558;28;20403;-60
2023/09/03 12:05:12;;;;;;;4.00;2.88;;;;;;;;;;5005259;28;20046;-51
2023/09/03 12:08:06;;;;;;;5.25;2.95;;;;;;;;;;5006654;28;20054;-50
2023/09/03 12:10:53;;;;;;;7.57;3.03;;;;;;;;;;5006669;28;20568;-49
2023/09/03 12:13:47;;;;;;;4.57;2.70;;;;;;;;;;5005254;28;20050;-48
2023/09/03 12:16:45;;;;;;;5.35;2.55;;;;;;;;;;4998966;28;20243;-48
2023/09/03 12:19:39;;;;;;;4.78;2.63;;;;;;;;;;5001582;28;20046;-50
2023/09/03 12:22:27;;;;;;;5.93;2.50;;;;;;;;;;5001236;28;20173;-51
2023/09/03 12:25:21;;;;;;;3.40;2.28;;;;;;;;;;5003399;28;20049;-50
2023/09/03 12:28:09;;;;;;;5.10;2.58;;;;;;;;;;5002157;28;20053;-51
2023/09/03 12:31:04;;;;;;;6.32;2.80;;;;;;;;;;5000064;28;20046;-47
2023/09/03 12:33:51;;;;;;;3.28;2.55;;;;;;;;;;5004070;28;20145;-57
2023/09/03 12:36:58;;;;;;;5.68;2.40;;;;;;;;;;4993946;28;20105;-57
2023/09/03 12:39:45;;;;;;;4.47;2.60;;;;;;;;;;4996177;28;20058;-56
2023/09/03 12:42:19;;;;;;;3.88;2.63;;;;;;;;;;4993409;28;20523;-56
2023/09/03 12:45:13;;;;;;;4.63;2.85;;;;;;;;;;4994741;28;21192;-56
2023/09/03 12:47:42;;;;;;;5.07;2.53;;;;;;;;;;5003308;28;20105;-50
2023/09/03 12:50:36;;;;;;;5.80;2.72;;;;;;;;;;4998862;28;20053;-60
2023/09/03 12:53:25;;;;;;;7.65;2.30;;;;;;;;;;5006085;28;20141;-61
2023/09/03 12:56:19;;;;;;;6.60;2.40;;;;;;;;;;5002964;28;20152;-62
2023/09/03 12:59:08;;;;;;;4.63;2.58;;;;;;;;;;5007222;28;20498;-60
2023/09/03 13:02:03;;;;;;;5.35;2.50;;;;;;;;;;4997294;28;20053;-61
2023/09/03 13:04:51;;;;;;;5.80;2.13;;;;;;;;;;4999535;28;20054;-60
2023/09/03 13:07:45;;;;;;;8.63;2.58;;;;;;;;;;5004208;28;20116;-50
2023/09/03 13:10:40;;;;;;;5.20;2.97;;;;;;;;;;5002253;28;20049;-59
2023/09/03 13:13:27;;;;;;;3.10;2.20;;;;;;;;;;5002723;28;20140;-59
2023/09/03 13:16:27;;;;;;;6.57;2.17;;;;;;;;;;5002766;28;20105;-59
2023/09/03 13:19:14;;;;;;;3.55;2.20;;;;;;;;;;4999085;28;20062;-59
2023/09/03 13:22:09;;;;;;;4.60;2.13;;;;;;;;;;5002005;28;20109;-59
2023/09/03 13:24:55;;;;;;;6.05;2.30;;;;;;;;;;5003109;28;20057;-61
2023/09/03 13:28:01;;;;;;;2.03;1.60;;;;;;;;;;5003267;28;20061;-63
2023/09/03 13:30:48;;;;;;;5.35;2.20;;;;;;;;;;5002757;28;20041;-62
2023/09/03 13:33:42;;;;;;;4.03;2.40;;;;;;;;;;4997898;28;20061;-63
2023/09/03 13:36:29;;;;;;;4.07;2.20;;;;;;;;;;4989950;28;20060;-62
2023/09/03 13:39:23;;;;;;;3.85;2.35;;;;;;;;;;4998597;28;20078;-63
2023/09/03 13:42:10;;;;;;;3.90;2.35;;;;;;;;;;4999099;28;20057;-63
2023/09/03 13:45:04;;;;;;;4.47;2.00;;;;;;;;;;4996875;28;20050;-63
2023/09/03 13:47:51;;;;;;;4.85;2.22;;;;;;;;;;4991413;28;20053;-52
2023/09/03 13:50:46;;;;;;;5.22;2.03;;;;;;;;;;5001954;28;20462;-50
2023/09/03 13:53:40;;;;;;;6.22;2.45;;;;;;;;;;5007324;28;20057;-50
2023/09/03 13:56:40;;;;;;;4.00;2.33;;;;;;;;;;4992424;28;20123;-49
2023/09/03 14:00:03;;;;;;;4.50;2.05;;;;;;;;;;4994179;28;20058;-49
2023/09/03 14:03:02;;;;;;;3.30;1.88;;;;;;;;;;4988493;28;20054;-59
2023/09/03 14:05:50;;;;;;;6.53;2.67;;;;;;;;;;4996945;28;20057;-62
2023/09/03 14:08:45;;;;;;;4.68;1.90;;;;;;;;;;4994023;28;20064;-63
2023/09/03 14:11:37;;;;;;;5.57;1.85;;;;;;;;;;5001616;28;20456;-63
2023/09/03 14:14:29;;;;;;;3.50;2.00;;;;;;;;;;5005059;28;20399;-63
2023/09/03 14:17:16;;;;;;;5.18;2.17;;;;;;;;;;5004549;28;20045;-63
2023/09/03 14:20:10;;;;;;;3.35;2.00;;;;;;;;;;4999399;28;20050;-63
2023/09/03 14:22:57;;;;;;;3.65;2.20;;;;;;;;;;5002130;28;20113;-63
2023/09/03 14:25:51;;;;;;;5.25;1.80;;;;;;;;;;5002942;28;20061;-63
2023/09/03 14:28:38;;;;;;;5.20;2.25;;;;;;;;;;4995824;28;20057;-63
2023/09/03 14:31:33;;;;;;;5.65;1.92;;;;;;;;;;4991140;28;20042;-63
2023/09/03 14:34:20;;;;;;;4.50;2.20;;;;;;;;;;5000329;28;20478;-63
2023/09/03 14:37:14;;;;;;;6.15;2.03;;;;;;;;;;4998763;28;20848;-63
2023/09/03 14:40:01;;;;;;;6.40;1.85;;;;;;;;;;5000237;28;20054;-56
2023/09/03 14:42:55;;;;;;;3.58;1.80;;;;;;;;;;4997979;28;20057;-60
2023/09/03 14:45:42;;;;;;;3.33;1.80;;;;;;;;;;4995983;28;20053;-60
2023/09/03 14:48:36;;;;;;;5.00;2.10;;;;;;;;;;4999859;28;20061;-61
2023/09/03 14:51:23;;;;;;;7.10;2.35;;;;;;;;;;4998238;28;20569;-61
2023/09/03 14:54:30;;;;;;;5.82;2.03;;;;;;;;;;5000621;28;20061;-61
2023/09/03 14:57:25;;;;;;;5.20;1.90;;;;;;;;;;4998807;28;20065;-64
2023/09/03 15:00:12;;;;;;;5.75;1.88;;;;;;;;;;5001144;28;20111;-64
2023/09/03 15:02:48;;;;;;;4.57;1.70;;;;;;;;;;5007853;28;20049;-64
2023/09/03 15:05:35;;;;;;;5.70;1.90;;;;;;;;;;5007967;28;20061;-64
2023/09/03 15:08:29;;;;;;;6.43;1.83;;;;;;;;;;5003787;28;20050;-63
2023/09/03 15:11:18;;;;;;;3.95;1.83;;;;;;;;;;4998854;28;20053;-63
2023/09/03 15:14:12;;;;;;;6.47;2.03;;;;;;;;;;5002579;28;20096;-64
2023/09/03 15:16:59;;;;;;;7.50;1.85;;;;;;;;;;4997934;28;20045;-53
2023/09/03 15:19:53;;;;;;;10.48;3.38;;;;;;;;;;5002374;28;20133;-60
2023/09/03 15:22:40;;;;;;;6.95;2.15;;;;;;;;;;5003650;28;20466;-60
2023/09/03 15:25:35;;;;;;;12.65;2.53;;;;;;;;;;5001355;28;20117;-60
2023/09/03 15:28:28;;;;;;;6.75;2.20;;;;;;;;;;4992112;28;20057;-59
2023/09/03 15:31:22;;;;;;;8.05;2.28;;;;;;;;;;4998878;28;20469;-61
2023/09/03 15:34:10;;;;;;;7.65;2.15;;;;;;;;;;4999816;28;20104;-52
2023/09/03 15:37:03;;;;;;;4.82;2.22;;;;;;;;;;4998366;28;20046;-64
2023/09/03 15:39:50;;;;;;;4.82;1.90;;;;;;;;;;4999007;28;20053;-64
2023/09/03 15:42:45;;;;;;;7.60;2.15;;;;;;;;;;5002038;28;20053;-64
2023/09/03 15:45:40;;;;;;;7.40;2.13;;;;;;;;;;4990358;28;20061;-64
2023/09/03 15:48:26;;;;;;;10.27;2.65;;;;;;;;;;4991928;28;20592;-65
2023/09/03 15:51:20;;;;;;;5.97;2.22;;;;;;;;;;4998180;28;22250;-64
2023/09/03 15:54:18;;;;;;;9.25;2.28;;;;;;;;;;5001696;28;20591;-51
2023/09/03 15:57:11;;;;;;;8.75;2.72;;;;;;;;;;5001363;28;20058;-53
2023/09/03 16:00:05;;;;;;;9.27;2.80;;;;;;;;;;5003146;28;22293;-51
2023/09/03 16:02:52;;;;;;;7.07;2.92;;;;;;;;;;5000887;28;20136;-51
2023/09/03 16:05:46;;;;;;;11.07;2.42;;;;;;;;;;5003212;28;20081;-61
2023/09/03 16:08:33;;;;;;;5.03;2.30;;;;;;;;;;5005136;28;20136;-61
2023/09/03 16:11:27;;;;;;;5.88;2.33;;;;;;;;;;5005724;28;20053;-62
2023/09/03 16:14:14;;;;;;;9.63;2.58;;;;;;;;;;5006087;28;20049;-62
2023/09/03 16:17:08;;;;;;;4.43;2.55;;;;;;;;;;5001617;28;20092;-61
2023/09/03 16:19:55;;;;;;;7.70;2.70;;;;;;;;;;5008432;28;20109;-61
2023/09/03 16:22:49;;;;;;;14.23;3.05;;;;;;;;;;5003477;28;20490;-60
2023/09/03 16:25:36;;;;;;;8.57;2.50;;;;;;;;;;5007639;28;20924;-59
2023/09/03 16:28:30;;;;;;;8.02;2.55;;;;;;;;;;5006800;28;20796;-60
2023/09/03 16:31:18;;;;;;;14.27;2.75;;;;;;;;;;5007789;28;20108;-59
2023/09/03 16:34:11;;;;;;;14.60;3.40;;;;;;;;;;5005359;28;20538;-59
2023/09/03 16:36:58;;;;;;;10.40;2.90;;;;;;;;;;5003156;28;20109;-60
2023/09/03 16:39:52;;;;;;;11.80;3.05;;;;;;;;;;5006643;28;20102;-65
2023/09/03 16:42:19;;;;;;;11.85;3.10;;;;;;;;;;5004479;28;20058;-60
2023/09/03 16:45:13;;;;;;;8.50;3.03;;;;;;;;;;4999544;28;20050;-59
2023/09/03 16:48:00;;;;;;;9.60;3.30;;;;;;;;;;5005105;28;20055;-60
2023/09/03 16:50:34;;;;;;;15.82;3.60;;;;;;;;;;5003001;28;20053;-59